Südanflug-Wetter

Südanflüge sind sowohl am Euroairport Basel-Mulhouse-Freiburg als auch am Flughafen Unique Zürich ein Thema für die Anwohner. In Basel hängen Südanflüge von den Windverhältnissen ab. Für den Euroairport Basel-Mulhouse-Freiburg bereitet MeteoNews deshalb aktuelle Winddaten auf, die direkt auf der Homepage des Flughafens eingebunden werden. Angaben zum Flughafen Zürich finden Sie hier.

In Zürich sind Südanflüge auf die Piste 34 möglich, wenn die horizontale Sichtweite mindestens 750 m beträgt und die Wolkenuntergrenze im Anflugsektor nicht tiefer als 300 Fuss (knapp 100 m) liegt (diese Werte gelten seit dem 1. November 2004).

Prognose für Südanflüge

Am Mittwoch sind Südanflüge möglich.
(Prognose ohne Gewähr. Die Vorhersage wird mehrmals täglich aktualisiert. Verantwortlicher Meteorologe: Reto Vögeli, 12.08.2020 06:31)

Analyse der letzten METAR-Messungen

Unser Tool wertet die letzten 20 offiziellen Wettermeldungen (METAR) des Flughafens Zürich aus und entscheidet aufgrund der beiden Werte für Sichtweite und Ceiling (Hauptwolkenuntergrenze), ob Südanflüge nach obiger Definition möglich wären. Allerdings repräsentiert der Wert für die Wolkenuntergrenze in der METAR-Meldung nicht die Bewölkung im Anflugsektor sondern generell um den Flughafen. Da über die Bewölkung im Anflugsektor kurzfristig aufgrund von Beobachtungen des Towers und von Piloten entschieden wird, kann die Angabe unseres Tools in gewissen Fällen von den realen Entscheiden der Flugsicherung abweichen.

Südanflüge Datum Uhrzeit Sichtweite Ceiling Vollständige METAR-Meldung
möglich 2020-08-12 08:20:00 > 10 km LSZH 120620Z VRB01KT CAVOK 21/18 Q1017 NOSIG
möglich 2020-08-12 07:50:00 > 10 km LSZH 120550Z VRB02KT CAVOK 19/18 Q1017 NOSIG
möglich 2020-08-12 07:20:00 > 10 km LSZH 120520Z VRB02KT CAVOK 18/17 Q1017 NOSIG
möglich 2020-08-12 06:50:00 > 10 km LSZH 120450Z VRB02KT CAVOK 17/16 Q1017 NOSIG
möglich 2020-08-12 06:20:00 > 10 km LSZH 120420Z 03002KT CAVOK 18/17 Q1017 NOSIG
möglich 2020-08-12 05:50:00 > 10 km LSZH 120350Z VRB02KT CAVOK 17/17 Q1017 NOSIG
möglich 2020-08-12 05:20:00 > 10 km LSZH 120320Z VRB01KT CAVOK 17/17 Q1017 NOSIG
möglich 2020-08-12 04:50:00 > 10 km LSZH 120250Z VRB01KT CAVOK 17/16 Q1017 NOSIG
möglich 2020-08-12 04:20:00 > 10 km LSZH 120220Z 33002KT CAVOK 18/17 Q1017 NOSIG
möglich 2020-08-12 03:50:00 > 10 km LSZH 120150Z VRB02KT CAVOK 18/17 Q1017 NOSIG
möglich 2020-08-12 03:20:00 > 10 km LSZH 120120Z 02003KT CAVOK 19/17 Q1017 NOSIG
möglich 2020-08-12 02:50:00 > 10 km LSZH 120050Z VRB01KT CAVOK 19/17 Q1017 NOSIG
möglich 2020-08-12 01:50:00 > 10 km LSZH 112350Z 36003KT 320V030 CAVOK 18/17 Q1017 NOSIG
möglich 2020-08-12 01:20:00 > 10 km LSZH 112320Z VRB01KT CAVOK 20/17 Q1017 NOSIG
möglich 2020-08-12 00:50:00 > 10 km LSZH 112250Z VRB01KT CAVOK 20/17 Q1017 NOSIG
möglich 2020-08-12 00:20:00 > 10 km LSZH 112220Z VRB01KT CAVOK 20/18 Q1017 NOSIG
möglich 2020-08-11 23:50:00 > 10 km LSZH 112150Z VRB03KT CAVOK 20/17 Q1017 NOSIG
möglich 2020-08-11 23:20:00 > 10 km LSZH 112120Z 02002KT CAVOK 23/17 Q1017 NOSIG
möglich 2020-08-11 22:50:00 > 10 km LSZH 112050Z 29002KT CAVOK 22/17 Q1017 NOSIG
möglich 2020-08-11 22:20:00 > 10 km LSZH 112020Z 35003KT CAVOK 24/17 Q1017 NOSIG